createdAt,value
2018-12-13T00:00:15.836Z,4.4
2018-12-13T00:03:15.175Z,4.3
2018-12-13T00:06:15.846Z,4.2
2018-12-13T00:09:14.991Z,4.1
2018-12-13T00:12:15.747Z,4.0
2018-12-13T00:15:15.097Z,3.9
2018-12-13T00:18:15.262Z,3.9
2018-12-13T00:21:15.344Z,3.8
2018-12-13T00:24:15.075Z,3.8
2018-12-13T00:27:15.001Z,3.7
2018-12-13T00:30:14.866Z,3.7
2018-12-13T00:33:15.774Z,3.6
2018-12-13T00:36:15.072Z,3.6
2018-12-13T00:39:15.750Z,3.6
2018-12-13T00:42:15.203Z,3.5
2018-12-13T00:45:14.911Z,3.5
2018-12-13T00:48:15.737Z,3.4
2018-12-13T00:51:15.188Z,3.4
2018-12-13T00:54:15.160Z,3.4
2018-12-13T00:57:15.790Z,3.3
2018-12-13T01:00:15.384Z,3.3
2018-12-13T01:03:15.199Z,3.3
2018-12-13T01:06:15.381Z,3.3
2018-12-13T01:09:15.600Z,3.2
2018-12-13T01:12:15.067Z,3.2
2018-12-13T01:15:15.119Z,3.2
2018-12-13T01:18:15.506Z,3.2
2018-12-13T01:21:20.623Z,3.1
2018-12-13T01:24:15.520Z,3.1
2018-12-13T01:27:15.485Z,3.2
2018-12-13T01:30:15.029Z,3.2
2018-12-13T01:33:15.168Z,3.2
2018-12-13T01:36:15.771Z,3.2
2018-12-13T01:39:15.862Z,3.2
2018-12-13T01:42:16.141Z,3.2
2018-12-13T01:45:16.063Z,3.2
2018-12-13T01:48:16.920Z,3.2
2018-12-13T01:51:15.247Z,3.2
2018-12-13T01:54:15.882Z,3.2
2018-12-13T01:57:16.257Z,3.1
2018-12-13T02:00:15.792Z,3.0
2018-12-13T02:03:15.111Z,3.0
2018-12-13T02:06:16.108Z,2.9
2018-12-13T02:09:15.519Z,2.9
2018-12-13T02:12:15.565Z,2.8
2018-12-13T02:15:16.119Z,2.8
2018-12-13T02:18:14.956Z,2.7
2018-12-13T02:21:15.919Z,2.7
2018-12-13T02:24:15.822Z,2.7
2018-12-13T02:27:15.077Z,2.7
2018-12-13T02:30:15.698Z,2.6
2018-12-13T02:33:16.193Z,2.6
2018-12-13T02:36:16.715Z,2.6
2018-12-13T02:39:16.281Z,2.6
2018-12-13T02:42:15.856Z,2.6
2018-12-13T02:45:15.101Z,2.6
2018-12-13T02:48:14.927Z,2.6
2018-12-13T02:51:16.292Z,2.5
2018-12-13T02:54:15.303Z,2.5
2018-12-13T02:57:16.399Z,2.5
2018-12-13T03:00:14.880Z,2.5
2018-12-13T03:03:15.083Z,2.5
2018-12-13T03:06:16.289Z,2.5
2018-12-13T03:09:26.265Z,2.6
2018-12-13T03:12:15.516Z,2.7
2018-12-13T03:15:16.150Z,2.7
2018-12-13T03:18:15.158Z,2.7
2018-12-13T03:21:15.426Z,2.7
2018-12-13T03:24:16.524Z,2.7
2018-12-13T03:27:20.838Z,2.6
2018-12-13T03:30:15.030Z,2.5
2018-12-13T03:33:16.443Z,2.5
2018-12-13T03:36:16.443Z,2.5
2018-12-13T03:39:16.319Z,2.4
2018-12-13T03:42:16.775Z,2.4
2018-12-13T03:45:14.990Z,2.4
2018-12-13T03:48:15.273Z,2.4
2018-12-13T03:51:15.839Z,2.4
2018-12-13T03:54:16.425Z,2.4
2018-12-13T03:57:16.132Z,2.4
2018-12-13T04:00:15.774Z,2.4
2018-12-13T04:03:14.976Z,2.4
2018-12-13T04:06:15.273Z,2.4
2018-12-13T04:09:16.471Z,2.4
2018-12-13T04:12:16.421Z,2.4
2018-12-13T04:15:16.529Z,2.4
2018-12-13T04:18:16.490Z,2.4
2018-12-13T04:21:16.334Z,2.4
2018-12-13T04:24:16.618Z,2.4
2018-12-13T04:27:16.544Z,2.4
2018-12-13T04:30:15.738Z,2.4
2018-12-13T04:33:15.749Z,2.4
2018-12-13T04:36:16.632Z,2.4
2018-12-13T04:39:15.094Z,2.4
2018-12-13T04:42:14.997Z,2.3
2018-12-13T04:45:15.807Z,2.3
2018-12-13T04:48:16.640Z,2.3
2018-12-13T04:51:15.025Z,2.3
2018-12-13T04:54:16.236Z,2.3
2018-12-13T04:57:16.215Z,2.2
2018-12-13T05:00:16.638Z,2.2
2018-12-13T05:03:16.617Z,2.2
2018-12-13T05:06:16.098Z,2.2
2018-12-13T05:09:15.354Z,2.2
2018-12-13T05:12:15.772Z,2.2
2018-12-13T05:15:15.761Z,2.1
2018-12-13T05:18:16.022Z,2.1
2018-12-13T05:21:15.685Z,2.1
2018-12-13T05:24:15.538Z,2.1
2018-12-13T05:27:15.608Z,2.0
2018-12-13T05:30:15.545Z,2.0
2018-12-13T05:33:15.614Z,2.0
2018-12-13T05:36:15.484Z,2.0
2018-12-13T05:39:15.291Z,2.0
2018-12-13T05:42:15.305Z,2.0
2018-12-13T05:45:15.476Z,2.0
2018-12-13T05:48:15.508Z,1.9
2018-12-13T05:51:15.597Z,1.9
2018-12-13T05:54:15.446Z,1.9
2018-12-13T05:57:15.368Z,1.9
2018-12-13T06:00:15.690Z,1.9
2018-12-13T06:03:15.559Z,1.8
2018-12-13T06:06:15.406Z,1.9
2018-12-13T06:09:15.286Z,1.8
2018-12-13T06:12:15.444Z,1.8
2018-12-13T06:15:15.507Z,1.8
2018-12-13T06:18:15.683Z,1.8
2018-12-13T06:21:15.611Z,1.8
2018-12-13T06:24:15.274Z,1.7
2018-12-13T06:27:15.330Z,1.7
2018-12-13T06:30:15.664Z,1.7
2018-12-13T06:33:15.624Z,1.7
2018-12-13T06:36:15.592Z,1.6
2018-12-13T06:39:15.472Z,1.6
2018-12-13T06:42:15.666Z,1.6
2018-12-13T06:45:15.009Z,1.6
2018-12-13T06:48:15.415Z,1.5
2018-12-13T06:51:15.526Z,1.5
2018-12-13T06:54:15.772Z,1.5
2018-12-13T06:57:21.625Z,1.5
2018-12-13T07:00:15.051Z,1.4
2018-12-13T07:03:15.461Z,1.4
2018-12-13T07:06:15.621Z,1.5
2018-12-13T07:09:15.611Z,1.4
2018-12-13T07:12:15.609Z,1.5
2018-12-13T07:15:15.473Z,1.5
2018-12-13T07:18:15.210Z,1.4
2018-12-13T07:21:15.412Z,1.4
2018-12-13T07:24:15.602Z,1.4
2018-12-13T07:27:15.725Z,1.4
2018-12-13T07:30:20.638Z,1.4
2018-12-13T07:33:15.903Z,1.4
2018-12-13T07:36:15.719Z,1.5
2018-12-13T07:39:20.714Z,1.6
2018-12-13T07:42:15.409Z,1.6
2018-12-13T07:45:17.485Z,1.6
2018-12-13T07:48:15.591Z,1.6
2018-12-13T07:51:15.517Z,1.7
2018-12-13T07:54:15.719Z,1.7
2018-12-13T07:57:15.751Z,1.8
2018-12-13T08:00:15.698Z,1.9
2018-12-13T08:03:15.410Z,1.9
2018-12-13T08:06:15.404Z,2.0
2018-12-13T08:09:15.571Z,2.2
2018-12-13T08:12:15.814Z,2.4
2018-12-13T08:15:15.187Z,2.6
2018-12-13T08:18:15.630Z,2.8
2018-12-13T08:21:15.627Z,3.0
2018-12-13T08:24:15.393Z,3.4
2018-12-13T08:27:15.631Z,3.8
2018-12-13T08:30:15.730Z,4.1
2018-12-13T08:33:15.645Z,4.4
2018-12-13T08:36:15.642Z,4.6
2018-12-13T08:39:15.616Z,5.1
2018-12-13T08:42:15.712Z,5.5
2018-12-13T08:45:15.529Z,5.9
2018-12-13T08:48:15.440Z,6.3
2018-12-13T08:51:15.449Z,6.7
2018-12-13T08:54:15.507Z,6.9
2018-12-13T08:57:15.572Z,7.1
2018-12-13T09:00:15.543Z,7.3
2018-12-13T09:03:15.609Z,7.5
2018-12-13T09:06:15.439Z,7.9
2018-12-13T09:09:15.619Z,8.2
2018-12-13T09:12:15.809Z,8.2
2018-12-13T09:15:15.834Z,8.2
2018-12-13T09:18:15.788Z,8.2
2018-12-13T09:21:15.961Z,8.1
2018-12-13T09:24:15.672Z,8.3
2018-12-13T09:27:16.723Z,8.5
2018-12-13T09:30:15.016Z,8.5
2018-12-13T09:33:15.327Z,8.7
2018-12-13T09:36:15.624Z,9.0
2018-12-13T09:39:15.605Z,8.8
2018-12-13T09:42:15.531Z,8.6
2018-12-13T09:45:15.558Z,9.0
2018-12-13T09:48:15.484Z,9.2
2018-12-13T09:51:15.811Z,9.2
2018-12-13T09:54:15.482Z,9.3
2018-12-13T09:57:15.439Z,9.1
2018-12-13T10:00:15.436Z,9.4
2018-12-13T10:03:15.568Z,9.6
2018-12-13T10:06:15.512Z,9.1
2018-12-13T10:09:15.439Z,9.0
2018-12-13T10:12:15.502Z,9.0
2018-12-13T10:15:15.442Z,9.2
2018-12-13T10:18:15.743Z,9.2
2018-12-13T10:21:15.595Z,9.0
2018-12-13T10:24:15.405Z,8.9
2018-12-13T10:27:15.514Z,8.6
2018-12-13T10:30:15.611Z,8.3
2018-12-13T10:33:15.529Z,8.0
2018-12-13T10:36:15.659Z,8.1
2018-12-13T10:39:15.664Z,8.1
2018-12-13T10:42:15.333Z,8.0
2018-12-13T10:45:15.093Z,7.7
2018-12-13T10:48:15.374Z,7.3
2018-12-13T10:51:15.618Z,7.3
2018-12-13T10:54:15.776Z,7.7
2018-12-13T10:57:15.090Z,7.7
2018-12-13T11:00:15.158Z,7.5
2018-12-13T11:03:15.620Z,7.2
2018-12-13T11:06:15.771Z,6.8
2018-12-13T11:09:15.696Z,6.3
2018-12-13T11:12:15.684Z,5.9
2018-12-13T11:15:15.577Z,5.6
2018-12-13T11:18:15.797Z,5.4
2018-12-13T11:21:17.557Z,5.1
2018-12-13T11:24:15.503Z,5.1
2018-12-13T11:27:15.797Z,5.2
2018-12-13T11:30:15.005Z,5.3
2018-12-13T11:33:15.280Z,5.4
2018-12-13T11:36:15.817Z,5.6
2018-12-13T11:39:15.686Z,5.4
2018-12-13T11:42:15.745Z,5.3
2018-12-13T11:45:15.716Z,5.6
2018-12-13T11:48:15.590Z,6.0
2018-12-13T11:51:15.658Z,6.0
2018-12-13T11:54:15.712Z,5.9
2018-12-13T11:57:14.984Z,5.8
2018-12-13T12:00:15.177Z,5.6
2018-12-13T12:03:15.542Z,5.4
2018-12-13T12:06:15.832Z,5.3
2018-12-13T12:09:15.878Z,5.1
2018-12-13T12:12:15.627Z,5.1
2018-12-13T12:15:15.693Z,5.2
2018-12-13T12:18:15.892Z,5.3
2018-12-13T12:21:15.793Z,5.4
2018-12-13T12:24:15.726Z,5.5
2018-12-13T12:27:15.671Z,5.5
2018-12-13T12:30:15.697Z,5.4
2018-12-13T12:33:15.024Z,5.3
2018-12-13T12:36:14.977Z,5.4
2018-12-13T12:39:18.611Z,5.4
2018-12-13T12:42:15.549Z,5.4
2018-12-13T12:45:15.662Z,5.3
2018-12-13T12:48:15.803Z,5.3
2018-12-13T12:51:15.688Z,5.2
2018-12-13T12:54:15.904Z,5.1
2018-12-13T12:57:15.932Z,5.2
2018-12-13T13:00:15.713Z,5.4
2018-12-13T13:03:15.935Z,5.3
2018-12-13T13:06:15.750Z,5.4
2018-12-13T13:09:15.397Z,5.2
2018-12-13T13:12:14.899Z,5.1
2018-12-13T13:15:15.300Z,5.0
2018-12-13T13:18:15.855Z,5.0
2018-12-13T13:21:15.330Z,4.8
2018-12-13T13:24:15.623Z,4.8
2018-12-13T13:27:15.732Z,4.7
2018-12-13T13:30:15.630Z,4.7
2018-12-13T13:33:14.905Z,4.8
2018-12-13T13:36:15.949Z,4.8
2018-12-13T13:39:15.809Z,4.9
2018-12-13T13:42:15.305Z,5.0
2018-12-13T13:45:15.143Z,5.1
2018-12-13T13:48:15.329Z,5.1
2018-12-13T13:51:15.072Z,5.0
2018-12-13T13:54:15.336Z,4.9
2018-12-13T13:57:15.530Z,4.8
2018-12-13T14:00:15.580Z,4.6
2018-12-13T14:03:15.789Z,4.5
2018-12-13T14:06:15.693Z,4.4
2018-12-13T14:09:15.884Z,4.3
2018-12-13T14:12:15.533Z,4.1
2018-12-13T14:15:15.600Z,4.0
2018-12-13T14:18:14.963Z,3.9
2018-12-13T14:21:14.986Z,4.0
2018-12-13T14:24:14.941Z,3.9
2018-12-13T14:27:15.521Z,3.8
2018-12-13T14:30:15.659Z,3.6
2018-12-13T14:33:15.589Z,3.4
2018-12-13T14:36:15.722Z,3.3
2018-12-13T14:39:15.712Z,3.2
2018-12-13T14:42:15.700Z,3.2
2018-12-13T14:45:15.749Z,3.2
2018-12-13T14:48:15.056Z,3.1
2018-12-13T14:51:15.280Z,3.1
2018-12-13T14:54:15.859Z,3.2
2018-12-13T14:57:15.955Z,3.2
2018-12-13T15:00:15.292Z,3.2
2018-12-13T15:03:15.183Z,3.1
2018-12-13T15:06:15.197Z,3.1
2018-12-13T15:09:15.523Z,3.1
2018-12-13T15:12:15.618Z,3.1
2018-12-13T15:15:15.658Z,3.1
2018-12-13T15:18:16.015Z,3.1
2018-12-13T15:21:15.733Z,2.9
2018-12-13T15:24:15.683Z,2.9
2018-12-13T15:27:15.550Z,2.8
2018-12-13T15:30:15.516Z,2.8
2018-12-13T15:33:15.187Z,2.7
2018-12-13T15:36:15.164Z,2.6
2018-12-13T15:39:19.927Z,2.6
2018-12-13T15:42:15.624Z,2.6
2018-12-13T15:45:15.812Z,2.6
2018-12-13T15:48:15.838Z,2.6
2018-12-13T15:51:15.031Z,2.5
2018-12-13T15:54:15.166Z,2.4
2018-12-13T15:57:15.284Z,2.4
2018-12-13T16:00:15.416Z,2.4
2018-12-13T16:03:15.538Z,2.4
2018-12-13T16:06:15.728Z,2.4
2018-12-13T16:09:15.449Z,2.4
2018-12-13T16:12:15.388Z,2.4
2018-12-13T16:15:15.265Z,2.5
2018-12-13T16:18:15.459Z,2.5
2018-12-13T16:21:15.612Z,2.5
2018-12-13T16:24:15.402Z,2.5
2018-12-13T16:27:15.162Z,2.5
2018-12-13T16:30:15.751Z,2.5
2018-12-13T16:33:15.790Z,2.6
2018-12-13T16:36:15.734Z,2.6
2018-12-13T16:39:15.777Z,2.6
2018-12-13T16:42:15.855Z,2.6
2018-12-13T16:45:15.764Z,2.7
2018-12-13T16:48:15.817Z,2.6
2018-12-13T16:51:15.411Z,2.5
2018-12-13T16:54:14.986Z,2.5
2018-12-13T16:57:15.210Z,2.6
2018-12-13T17:00:15.213Z,2.6
2018-12-13T17:03:15.156Z,2.6
2018-12-13T17:06:15.257Z,2.7
2018-12-13T17:09:15.257Z,2.6
2018-12-13T17:12:15.092Z,2.6
2018-12-13T17:15:14.974Z,2.6
2018-12-13T17:18:16.075Z,2.6
2018-12-13T17:21:15.751Z,2.6
2018-12-13T17:24:15.733Z,2.5
2018-12-13T17:27:15.707Z,2.5
2018-12-13T17:30:15.776Z,2.5
2018-12-13T17:33:15.790Z,2.6
2018-12-13T17:36:15.570Z,2.5
2018-12-13T17:39:15.605Z,2.5
2018-12-13T17:42:15.033Z,2.5
2018-12-13T17:45:15.767Z,2.6
2018-12-13T17:48:15.914Z,2.6
2018-12-13T17:51:15.693Z,2.6
2018-12-13T17:54:15.512Z,2.6
2018-12-13T17:57:15.408Z,2.6
2018-12-13T18:00:15.551Z,2.6
2018-12-13T18:03:15.655Z,2.6
2018-12-13T18:06:15.839Z,2.6
2018-12-13T18:09:15.935Z,2.7
2018-12-13T18:12:15.798Z,2.7
2018-12-13T18:15:15.696Z,2.7
2018-12-13T18:18:15.799Z,2.7
2018-12-13T18:21:15.685Z,2.7
2018-12-13T18:24:15.689Z,2.7
2018-12-13T18:27:15.694Z,2.7
2018-12-13T18:30:15.595Z,2.7
2018-12-13T18:33:15.166Z,2.7
2018-12-13T18:36:15.038Z,2.8
2018-12-13T18:39:15.521Z,2.8
2018-12-13T18:42:15.453Z,2.8
2018-12-13T18:45:15.661Z,2.8
2018-12-13T18:48:15.752Z,2.7
2018-12-13T18:51:15.644Z,2.7
2018-12-13T18:54:15.785Z,2.7
2018-12-13T18:57:15.740Z,2.7
2018-12-13T19:00:15.704Z,2.6
2018-12-13T19:03:15.948Z,2.6
2018-12-13T19:06:15.017Z,2.6
2018-12-13T19:09:15.255Z,2.6
2018-12-13T19:12:15.409Z,2.6
2018-12-13T19:15:15.282Z,2.6
2018-12-13T19:18:14.981Z,2.6
2018-12-13T19:21:15.878Z,2.6
2018-12-13T19:24:14.959Z,2.7
2018-12-13T19:27:15.769Z,2.7
2018-12-13T19:30:14.947Z,2.7
2018-12-13T19:33:15.252Z,2.7
2018-12-13T19:36:15.331Z,2.6
2018-12-13T19:39:15.718Z,2.6
2018-12-13T19:42:15.066Z,2.7
2018-12-13T19:45:15.201Z,2.7
2018-12-13T19:48:15.028Z,2.8
2018-12-13T19:51:15.451Z,2.8
2018-12-13T19:54:15.785Z,2.9
2018-12-13T19:57:15.127Z,2.8
2018-12-13T20:00:15.869Z,2.8
2018-12-13T20:03:16.017Z,2.8
2018-12-13T20:06:15.455Z,2.8
2018-12-13T20:09:15.056Z,2.7
2018-12-13T20:12:15.009Z,2.7
2018-12-13T20:15:15.090Z,2.7
2018-12-13T20:18:15.890Z,2.6
2018-12-13T20:21:15.096Z,2.7
2018-12-13T20:24:15.181Z,2.7
2018-12-13T20:27:15.106Z,2.6
2018-12-13T20:30:15.764Z,2.7
2018-12-13T20:33:15.937Z,2.7
2018-12-13T20:36:15.194Z,2.7
2018-12-13T20:39:15.621Z,2.6
2018-12-13T20:42:15.414Z,2.6
2018-12-13T20:45:16.232Z,2.6
2018-12-13T20:48:15.397Z,2.5
2018-12-13T20:51:15.234Z,2.5
2018-12-13T20:54:15.613Z,2.4
2018-12-13T20:57:15.020Z,2.4
2018-12-13T21:00:15.837Z,2.5
2018-12-13T21:03:15.069Z,2.5
2018-12-13T21:06:14.893Z,2.5
2018-12-13T21:09:15.397Z,2.5
2018-12-13T21:12:14.933Z,2.5
2018-12-13T21:15:15.143Z,2.4
2018-12-13T21:18:15.480Z,2.5
2018-12-13T21:21:15.714Z,2.4
2018-12-13T21:24:14.959Z,2.5
2018-12-13T21:27:15.898Z,2.5
2018-12-13T21:30:15.058Z,2.5
2018-12-13T21:33:15.149Z,2.5
2018-12-13T21:36:15.240Z,2.5
2018-12-13T21:39:15.424Z,2.5
2018-12-13T21:42:15.582Z,2.5
2018-12-13T21:45:15.166Z,2.4
2018-12-13T21:48:15.803Z,2.4
2018-12-13T21:51:15.079Z,2.3
2018-12-13T21:54:14.855Z,2.3
2018-12-13T21:57:15.254Z,2.3
2018-12-13T22:00:15.842Z,2.2
2018-12-13T22:03:14.949Z,2.2
2018-12-13T22:06:14.950Z,2.2
2018-12-13T22:09:15.379Z,2.2
2018-12-13T22:12:15.162Z,2.1
2018-12-13T22:15:15.895Z,2.2
2018-12-13T22:18:15.138Z,2.2
2018-12-13T22:21:15.002Z,2.2
2018-12-13T22:24:15.241Z,2.2
2018-12-13T22:27:15.045Z,2.2
2018-12-13T22:30:15.049Z,2.2
2018-12-13T22:33:15.694Z,2.2
2018-12-13T22:36:15.665Z,2.2
2018-12-13T22:39:14.967Z,2.2
2018-12-13T22:42:15.804Z,2.2
2018-12-13T22:45:15.927Z,2.2
2018-12-13T22:48:15.203Z,2.2
2018-12-13T22:51:15.773Z,2.3
2018-12-13T22:54:15.014Z,2.2
2018-12-13T22:57:15.484Z,2.2
2018-12-13T23:00:15.400Z,2.2
2018-12-13T23:03:15.244Z,2.2
2018-12-13T23:06:15.209Z,2.3
2018-12-13T23:09:15.076Z,2.3
2018-12-13T23:12:15.046Z,2.2
2018-12-13T23:15:14.924Z,2.3
2018-12-13T23:18:15.618Z,2.2
2018-12-13T23:21:15.800Z,2.2
2018-12-13T23:24:15.460Z,2.3
2018-12-13T23:27:15.537Z,2.2
2018-12-13T23:30:15.209Z,2.2
2018-12-13T23:33:15.310Z,2.2
2018-12-13T23:36:15.187Z,2.2
2018-12-13T23:39:15.057Z,2.2
2018-12-13T23:42:14.964Z,2.2
2018-12-13T23:45:15.647Z,2.3
2018-12-13T23:48:15.612Z,2.3
2018-12-13T23:51:15.625Z,2.3
2018-12-13T23:54:15.344Z,2.2
2018-12-13T23:57:15.488Z,2.2
